Terminal Aerodrome Forecast
Issued by NWS

Home | Current Version | Previous Version | Graphics & Text | Print | Product List | Glossary On
Versions: 1 2 3 4 5 6 7 8 9 10 11 12 13 14 15 16 17 18 19 20 21 22 23 24 25 26 27 28 29 30 31 32 33 34 35 36 37 38 39
000
FTUS43 KLOT 230900 AAB
TAFMDW
TAF AMD
KMDW 230905Z 2309/2406 19011KT P6SM SCT030 OVC050 WS020/21040KT
     FM231400 18013KT P6SM -SHRA BKN018 OVC030
     FM231800 18014G20KT 6SM BR VCSH SCT007 BKN015 OVC025
     FM232100 14012G20KT 2SM RA BR OVC006
     FM240300 18010KT 2SM RA BR OVC004=

USA.gov is the U.S. government's official web portal to all federal, state and local government web resources and services.